Terminal Aerodrome Forecast
Issued by NWS Sioux Falls, SD

Home | Current Version | Previous Version | Graphics & Text | Print | Product List | Glossary Off
Versions: 1 2 3 4 5 6 7 8 9 10 11 12 13 14 15 16 17 18 19 20 21 22 23 24 25 26 27 28 29 30

896
FTUS43 KFSD 260752 AAA
TAFSUX
TAF AMD
KSUX 260752Z 2608/2706 33017G24KT P6SM OVC009
     FM261800 32017G25KT P6SM OVC020
     FM270200 33011KT P6SM BKN045=

USA.gov is the U.S. government's official web portal to all federal, state and local government web resources and services.